createdAt,value
2018-06-24T00:04:24.239Z,19.73
2018-06-24T00:07:09.284Z,19.78
2018-06-24T00:09:56.434Z,19.62
2018-06-24T00:12:35.573Z,19.81
2018-06-24T00:17:51.496Z,20.15
2018-06-24T00:20:31.657Z,19.92
2018-06-24T00:23:08.780Z,19.86
2018-06-24T00:25:50.647Z,19.76
2018-06-24T00:28:32.413Z,19.79
2018-06-24T00:37:18.068Z,19.76
2018-06-24T00:39:47.610Z,19.86
2018-06-24T00:42:17.260Z,19.92
2018-06-24T00:44:46.901Z,19.71
2018-06-24T00:47:16.500Z,19.59
2018-06-24T00:49:46.072Z,19.70
2018-06-24T00:52:18.842Z,19.64
2018-06-24T00:54:48.574Z,19.54
2018-06-24T00:57:21.381Z,19.28
2018-06-24T01:00:03.260Z,19.20
2018-06-24T01:02:32.876Z,19.25
2018-06-24T01:05:02.695Z,19.21
2018-06-24T01:07:32.356Z,19.23
2018-06-24T01:10:08.706Z,19.46
2018-06-24T01:12:38.438Z,19.56
2018-06-24T01:15:08.242Z,19.74
2018-06-24T01:17:38.173Z,20.02
2018-06-24T01:20:07.859Z,19.80
2018-06-24T01:22:38.744Z,19.84
2018-06-24T01:25:08.388Z,19.53
2018-06-24T01:27:38.906Z,19.50
2018-06-24T01:30:08.518Z,19.38
2018-06-24T01:32:38.095Z,19.42
2018-06-24T01:35:07.788Z,19.46
2018-06-24T01:37:38.291Z,19.47
2018-06-24T01:40:08.000Z,19.50
2018-06-24T01:42:37.653Z,19.55
2018-06-24T01:45:07.358Z,19.48
2018-06-24T01:47:37.142Z,19.78
2018-06-24T01:50:06.986Z,19.71
2018-06-24T01:52:37.865Z,19.72
2018-06-24T01:55:07.574Z,19.62
2018-06-24T01:57:37.232Z,19.34
2018-06-24T02:00:07.740Z,19.39
2018-06-24T02:02:37.655Z,19.53
2018-06-24T02:05:07.744Z,19.57
2018-06-24T02:07:38.083Z,19.36
2018-06-24T02:10:07.997Z,19.18
2018-06-24T02:12:38.357Z,19.23
2018-06-24T02:15:08.086Z,19.17
2018-06-24T02:17:38.221Z,19.27
2018-06-24T02:20:07.859Z,19.07
2018-06-24T02:22:38.214Z,19.12
2018-06-24T02:25:07.813Z,19.00
2018-06-24T02:27:37.481Z,19.40
2018-06-24T02:30:07.165Z,19.30
2018-06-24T02:32:37.044Z,19.54
2018-06-24T02:35:06.691Z,19.56
2018-06-24T02:37:36.383Z,19.87
2018-06-24T02:40:06.070Z,19.58
2018-06-24T02:42:37.382Z,19.49
2018-06-24T02:45:07.497Z,19.67
2018-06-24T02:47:37.177Z,19.61
2018-06-24T02:50:07.964Z,19.73
2018-06-24T02:52:39.880Z,19.66
2018-06-24T02:55:09.966Z,19.39
2018-06-24T02:57:39.617Z,19.35
2018-06-24T03:00:09.390Z,19.32
2018-06-24T03:05:15.433Z,19.32
2018-06-24T03:07:45.150Z,19.36
2018-06-24T03:10:14.839Z,19.43
2018-06-24T03:12:45.705Z,19.48
2018-06-24T03:15:15.785Z,19.44
2018-06-24T03:17:45.545Z,19.65
2018-06-24T03:20:15.773Z,19.32
2018-06-24T03:22:51.146Z,19.17
2018-06-24T03:25:21.726Z,19.28
2018-06-24T03:27:51.335Z,19.27
2018-06-24T03:30:21.988Z,19.16
2018-06-24T03:32:51.885Z,19.32
2018-06-24T03:37:56.919Z,19.10
2018-06-24T03:40:26.650Z,18.66
2018-06-24T03:42:57.342Z,18.62
2018-06-24T03:45:27.153Z,18.80
2018-06-24T03:47:56.777Z,18.85
2018-06-24T03:50:27.705Z,19.10
2018-06-24T03:53:01.011Z,19.29
2018-06-24T03:55:30.868Z,19.58
2018-06-24T03:58:00.598Z,19.60
2018-06-24T04:00:30.242Z,19.59
2018-06-24T04:03:02.764Z,19.62
2018-06-24T04:05:33.108Z,19.25
2018-06-24T04:08:02.875Z,19.31
2018-06-24T04:10:32.503Z,19.40
2018-06-24T04:13:03.626Z,19.41
2018-06-24T04:15:34.089Z,19.45
2018-06-24T04:20:39.061Z,19.49
2018-06-24T04:23:10.096Z,19.43
2018-06-24T04:25:39.777Z,19.33
2018-06-24T04:28:09.422Z,19.39
2018-06-24T04:30:39.086Z,19.31
2018-06-24T04:35:45.553Z,19.99
2018-06-24T04:38:15.857Z,19.84
2018-06-24T04:40:45.480Z,19.88
2018-06-24T04:43:15.979Z,19.86
2018-06-24T04:45:45.676Z,20.25
2018-06-24T04:48:15.348Z,20.16
2018-06-24T04:50:45.016Z,20.03
2018-06-24T04:53:16.285Z,19.88
2018-06-24T04:55:46.674Z,19.74
2018-06-24T04:58:16.380Z,19.79
2018-06-24T05:00:46.540Z,20.11
2018-06-24T05:03:16.769Z,19.92
2018-06-24T05:05:46.460Z,19.94
2018-06-24T05:08:16.144Z,20.00
2018-06-24T05:10:46.153Z,19.94
2018-06-24T05:13:15.799Z,19.94
2018-06-24T05:15:46.293Z,19.83
2018-06-24T05:18:15.928Z,19.74
2018-06-24T05:20:45.877Z,19.71
2018-06-24T05:23:15.597Z,19.75
2018-06-24T05:25:45.289Z,19.73
2018-06-24T05:28:14.982Z,19.92
2018-06-24T05:30:44.677Z,20.18
2018-06-24T05:33:14.571Z,19.94
2018-06-24T05:35:44.289Z,20.07
2018-06-24T05:38:13.996Z,19.97
2018-06-24T05:40:43.901Z,20.00
2018-06-24T05:43:13.617Z,20.24
2018-06-24T05:45:43.437Z,20.16
2018-06-24T05:48:13.112Z,20.18
2018-06-24T05:50:42.807Z,20.32
2018-06-24T05:53:12.450Z,20.41
2018-06-24T05:55:42.075Z,20.38
2018-06-24T05:58:11.937Z,20.69
2018-06-24T06:00:41.561Z,20.60
2018-06-24T06:03:11.772Z,20.76
2018-06-24T06:05:41.402Z,20.92
2018-06-24T06:08:11.112Z,20.87
2018-06-24T06:10:40.957Z,20.84
2018-06-24T06:13:10.630Z,21.11
2018-06-24T06:15:40.236Z,20.92
2018-06-24T06:18:10.601Z,21.06
2018-06-24T06:23:15.621Z,21.37
2018-06-24T06:25:45.270Z,21.32
2018-06-24T06:28:17.250Z,21.64
2018-06-24T06:30:49.393Z,22.24
2018-06-24T06:33:20.070Z,22.88
2018-06-24T06:35:49.802Z,23.61
2018-06-24T06:38:19.477Z,23.38
2018-06-24T06:40:53.657Z,22.85
2018-06-24T06:43:24.798Z,22.31
2018-06-24T06:45:55.825Z,22.05
2018-06-24T06:48:25.508Z,22.12
2018-06-24T06:50:57.549Z,22.30
2018-06-24T06:53:28.073Z,21.85
2018-06-24T06:55:58.097Z,21.96
2018-06-24T06:58:29.152Z,21.89
2018-06-24T07:00:59.580Z,21.95
2018-06-24T07:03:29.218Z,22.20
2018-06-24T07:05:59.577Z,22.36
2018-06-24T07:08:29.352Z,22.50
2018-06-24T07:10:59.112Z,22.32
2018-06-24T07:13:28.906Z,22.29
2018-06-24T07:15:58.545Z,22.19
2018-06-24T07:18:28.304Z,22.11
2018-06-24T07:23:35.940Z,22.61
2018-06-24T07:28:42.261Z,22.56
2018-06-24T07:31:12.300Z,22.49
2018-06-24T07:33:42.778Z,22.47
2018-06-24T07:36:13.125Z,22.50
2018-06-24T07:38:43.990Z,22.54
2018-06-24T07:41:15.046Z,22.22
2018-06-24T07:43:45.821Z,21.99
2018-06-24T07:46:15.684Z,22.08
2018-06-24T07:48:45.713Z,22.10
2018-06-24T07:51:16.741Z,22.34
2018-06-24T07:53:48.480Z,22.56
2018-06-24T07:56:19.585Z,23.03
2018-06-24T07:58:50.492Z,23.00
2018-06-24T08:01:20.048Z,22.80
2018-06-24T08:03:50.318Z,23.16
2018-06-24T08:08:56.097Z,23.51
2018-06-24T08:11:26.789Z,23.39
2018-06-24T08:13:57.856Z,23.41
2018-06-24T08:16:29.695Z,23.57
2018-06-24T08:19:01.783Z,23.63
2018-06-24T08:21:31.410Z,23.65
2018-06-24T08:24:02.681Z,23.53
2018-06-24T08:26:33.841Z,23.18
2018-06-24T08:29:04.554Z,23.41
2018-06-24T08:31:35.769Z,23.47
2018-06-24T08:36:43.324Z,23.34
2018-06-24T08:39:13.313Z,23.42
2018-06-24T08:41:43.556Z,23.22
2018-06-24T08:44:14.199Z,23.31
2018-06-24T08:46:44.890Z,23.25
2018-06-24T08:49:14.817Z,23.06
2018-06-24T08:51:45.170Z,23.17
2018-06-24T08:54:15.468Z,23.18
2018-06-24T08:56:46.254Z,23.38
2018-06-24T08:59:16.332Z,23.60
2018-06-24T09:01:46.525Z,23.73
2018-06-24T09:04:16.865Z,23.85
2018-06-24T09:06:47.041Z,24.00
2018-06-24T09:09:17.165Z,24.21
2018-06-24T09:11:47.580Z,23.95
2018-06-24T09:14:19.891Z,24.44
2018-06-24T09:16:50.249Z,24.57
2018-06-24T09:19:20.879Z,24.44
2018-06-24T09:21:53.068Z,24.29
2018-06-24T09:24:24.132Z,24.11
2018-06-24T09:26:53.849Z,24.13
2018-06-24T09:29:24.501Z,23.91
2018-06-24T09:31:56.018Z,24.06
2018-06-24T09:34:26.077Z,24.14
2018-06-24T09:36:56.072Z,24.10
2018-06-24T09:39:26.425Z,24.38
2018-06-24T09:41:56.137Z,24.39
2018-06-24T09:44:26.101Z,24.63
2018-06-24T09:46:56.241Z,24.74
2018-06-24T09:49:26.084Z,24.74
2018-06-24T09:51:56.279Z,24.62
2018-06-24T09:54:26.208Z,24.65
2018-06-24T09:57:05.871Z,24.67
2018-06-24T09:59:36.581Z,24.47
2018-06-24T10:02:07.070Z,24.44
2018-06-24T10:04:38.016Z,24.07
2018-06-24T10:07:09.348Z,24.45
2018-06-24T10:09:39.008Z,24.68
2018-06-24T10:12:09.411Z,24.78
2018-06-24T10:14:39.789Z,25.30
2018-06-24T10:17:10.141Z,24.52
2018-06-24T10:19:40.085Z,24.70
2018-06-24T10:22:09.965Z,24.85
2018-06-24T10:24:39.994Z,24.70
2018-06-24T10:27:10.548Z,25.22
2018-06-24T10:29:40.442Z,25.37
2018-06-24T10:32:10.059Z,25.56
2018-06-24T10:34:40.395Z,25.84
2018-06-24T10:37:10.236Z,25.19
2018-06-24T10:39:40.369Z,24.89
2018-06-24T10:42:10.683Z,24.66
2018-06-24T10:44:41.288Z,24.81
2018-06-24T10:47:12.285Z,24.63
2018-06-24T10:49:42.800Z,25.29
2018-06-24T10:52:13.241Z,25.74
2018-06-24T10:54:43.776Z,26.28
2018-06-24T10:57:14.283Z,27.01
2018-06-24T10:59:46.041Z,26.86
2018-06-24T11:02:17.619Z,26.57
2018-06-24T11:04:49.994Z,26.87
2018-06-24T11:07:21.068Z,26.65
2018-06-24T11:09:51.456Z,26.40
2018-06-24T11:12:21.831Z,26.27
2018-06-24T11:14:52.409Z,26.66
2018-06-24T11:17:22.443Z,26.23
2018-06-24T11:19:52.582Z,26.91
2018-06-24T11:22:22.706Z,26.70
2018-06-24T11:27:29.943Z,25.90
2018-06-24T11:29:59.853Z,25.26
2018-06-24T11:32:30.521Z,25.66
2018-06-24T11:35:00.264Z,26.67
2018-06-24T11:37:32.229Z,26.74
2018-06-24T11:40:01.910Z,27.09
2018-06-24T11:42:31.579Z,26.52
2018-06-24T11:45:01.905Z,26.04
2018-06-24T11:47:31.654Z,26.03
2018-06-24T11:50:02.136Z,26.03
2018-06-24T11:52:32.167Z,26.14
2018-06-24T11:55:05.640Z,26.56
2018-06-24T11:57:35.459Z,26.23
2018-06-24T12:00:06.993Z,26.01
2018-06-24T12:02:37.254Z,26.52
2018-06-24T12:05:06.931Z,27.28
2018-06-24T12:07:36.568Z,27.92
2018-06-24T12:10:07.076Z,28.20
2018-06-24T12:15:12.570Z,28.15
2018-06-24T12:17:42.165Z,27.86
2018-06-24T12:20:11.889Z,27.27
2018-06-24T12:22:44.964Z,26.89
2018-06-24T12:25:14.841Z,26.87
2018-06-24T12:27:44.501Z,26.54
2018-06-24T12:30:14.171Z,26.78
2018-06-24T12:32:43.933Z,27.11
2018-06-24T12:35:13.683Z,27.11
2018-06-24T12:37:43.354Z,27.11
2018-06-24T12:40:23.798Z,27.04
2018-06-24T12:42:53.597Z,26.69
2018-06-24T12:45:23.434Z,26.61
2018-06-24T12:47:53.124Z,26.09
2018-06-24T12:50:23.058Z,26.72
2018-06-24T12:52:53.078Z,27.25
2018-06-24T12:55:22.730Z,27.74
2018-06-24T12:57:52.513Z,28.15
2018-06-24T13:00:22.650Z,28.38
2018-06-24T13:02:51.914Z,27.14
2018-06-24T13:05:21.545Z,26.70
2018-06-24T13:07:51.243Z,26.14
2018-06-24T13:10:20.853Z,25.94
2018-06-24T13:12:50.466Z,26.51
2018-06-24T13:15:20.376Z,26.90
2018-06-24T13:17:49.979Z,27.05
2018-06-24T13:20:19.620Z,26.99
2018-06-24T13:22:49.243Z,26.55
2018-06-24T13:25:19.433Z,26.70
2018-06-24T13:27:49.095Z,27.27
2018-06-24T13:30:18.751Z,27.83
2018-06-24T13:32:48.375Z,28.12
2018-06-24T13:35:18.258Z,28.06
2018-06-24T13:37:48.095Z,28.27
2018-06-24T13:40:17.847Z,28.26
2018-06-24T13:42:47.521Z,28.02
2018-06-24T13:45:17.177Z,28.00
2018-06-24T13:47:46.865Z,28.21
2018-06-24T13:50:16.790Z,28.02
2018-06-24T13:52:47.065Z,27.65
2018-06-24T13:55:16.693Z,27.72
2018-06-24T13:57:46.288Z,27.98
2018-06-24T14:00:22.018Z,28.21
2018-06-24T14:02:51.829Z,27.97
2018-06-24T14:05:21.457Z,28.34
2018-06-24T14:07:51.288Z,28.03
2018-06-24T14:10:21.028Z,27.79
2018-06-24T14:12:52.327Z,27.89
2018-06-24T14:15:22.703Z,27.81
2018-06-24T14:17:52.465Z,27.93
2018-06-24T14:20:22.306Z,27.56
2018-06-24T14:22:52.009Z,27.42
2018-06-24T14:25:21.869Z,27.25
2018-06-24T14:27:52.577Z,27.49
2018-06-24T14:30:22.219Z,28.01
2018-06-24T14:32:52.036Z,27.84
2018-06-24T14:35:21.669Z,27.69
2018-06-24T14:37:51.412Z,27.60
2018-06-24T14:40:21.322Z,27.43
2018-06-24T14:42:50.959Z,27.91
2018-06-24T14:45:20.622Z,28.52
2018-06-24T14:47:50.262Z,28.94
2018-06-24T14:50:19.951Z,29.18
2018-06-24T14:52:49.639Z,29.38
2018-06-24T14:57:54.690Z,29.46
2018-06-24T15:00:24.277Z,28.69
2018-06-24T15:02:54.164Z,29.28
2018-06-24T15:05:24.513Z,29.44
2018-06-24T15:07:54.238Z,29.15
2018-06-24T15:10:24.013Z,29.30
2018-06-24T15:12:53.945Z,29.66
2018-06-24T15:15:23.778Z,29.06
2018-06-24T15:17:53.509Z,29.15
2018-06-24T15:20:23.212Z,29.45
2018-06-24T15:22:52.793Z,29.45
2018-06-24T15:25:22.385Z,29.18
2018-06-24T15:27:52.029Z,29.26
2018-06-24T15:30:21.734Z,29.23
2018-06-24T15:32:51.723Z,29.36
2018-06-24T15:35:21.389Z,29.29
2018-06-24T15:37:51.101Z,29.14
2018-06-24T15:40:20.877Z,28.70
2018-06-24T15:42:56.948Z,28.22
2018-06-24T15:45:26.756Z,27.47
2018-06-24T15:47:56.571Z,26.94
2018-06-24T15:50:26.217Z,26.71
2018-06-24T15:52:55.848Z,26.39
2018-06-24T15:55:25.438Z,26.43
2018-06-24T15:57:55.316Z,26.37
2018-06-24T16:00:25.284Z,26.24
2018-06-24T16:02:55.100Z,26.43
2018-06-24T16:05:24.768Z,25.97
2018-06-24T16:07:54.386Z,25.69
2018-06-24T16:10:24.013Z,25.73
2018-06-24T16:12:53.644Z,26.20
2018-06-24T16:15:23.296Z,26.28
2018-06-24T16:17:52.936Z,26.06
2018-06-24T16:20:22.653Z,25.58
2018-06-24T16:22:52.392Z,25.85
2018-06-24T16:25:21.842Z,25.92
2018-06-24T16:27:51.551Z,25.59
2018-06-24T16:30:21.109Z,25.03
2018-06-24T16:32:51.940Z,25.05
2018-06-24T16:35:21.713Z,25.26
2018-06-24T16:37:51.379Z,25.40
2018-06-24T16:40:21.021Z,25.15
2018-06-24T16:42:50.639Z,25.04
2018-06-24T16:45:20.377Z,25.13
2018-06-24T16:47:50.073Z,25.04
2018-06-24T16:50:19.688Z,24.77
2018-06-24T16:52:49.477Z,24.66
2018-06-24T16:55:19.196Z,24.72
2018-06-24T16:57:48.820Z,24.86
2018-06-24T17:00:18.383Z,25.01
2018-06-24T17:02:48.279Z,25.07
2018-06-24T17:05:17.863Z,25.02
2018-06-24T17:07:47.669Z,24.66
2018-06-24T17:10:17.494Z,24.38
2018-06-24T17:12:47.292Z,24.36
2018-06-24T17:15:16.989Z,24.27
2018-06-24T17:17:46.608Z,24.26
2018-06-24T17:20:16.356Z,24.16
2018-06-24T17:22:46.477Z,24.27
2018-06-24T17:25:16.034Z,24.25
2018-06-24T17:27:45.821Z,24.28
2018-06-24T17:30:18.603Z,24.02
2018-06-24T17:32:48.280Z,24.11
2018-06-24T17:35:18.044Z,24.01
2018-06-24T17:40:23.450Z,24.12
2018-06-24T17:42:53.319Z,23.71
2018-06-24T17:45:22.996Z,23.78
2018-06-24T17:50:32.128Z,23.72
2018-06-24T17:53:02.351Z,23.83
2018-06-24T17:55:32.152Z,23.73
2018-06-24T17:58:02.392Z,23.40
2018-06-24T18:00:33.106Z,23.50
2018-06-24T18:03:02.753Z,23.56
2018-06-24T18:05:32.670Z,23.55
2018-06-24T18:08:02.827Z,23.64
2018-06-24T18:10:32.441Z,23.48
2018-06-24T18:13:02.158Z,23.58
2018-06-24T18:15:31.990Z,23.67
2018-06-24T18:18:01.728Z,23.59
2018-06-24T18:20:32.416Z,23.60
2018-06-24T18:23:02.085Z,23.65
2018-06-24T18:25:33.104Z,23.72
2018-06-24T18:28:04.001Z,23.67
2018-06-24T18:30:34.526Z,23.54
2018-06-24T18:33:04.925Z,23.47
2018-06-24T18:35:35.125Z,23.48
2018-06-24T18:38:04.991Z,23.46
2018-06-24T18:40:34.805Z,23.46
2018-06-24T18:43:04.518Z,23.39
2018-06-24T18:45:34.161Z,23.25
2018-06-24T18:48:04.840Z,23.13
2018-06-24T18:50:34.653Z,23.11
2018-06-24T18:58:15.801Z,22.80
2018-06-24T19:00:45.595Z,22.70
2018-06-24T19:03:15.380Z,22.56
2018-06-24T19:05:45.069Z,22.67
2018-06-24T19:08:14.852Z,22.60
2018-06-24T19:10:44.576Z,22.66
2018-06-24T19:13:14.203Z,22.56
2018-06-24T19:15:44.013Z,22.52
2018-06-24T19:18:14.129Z,22.21
2018-06-24T19:20:43.783Z,22.17
2018-06-24T19:23:14.160Z,22.06
2018-06-24T19:25:43.973Z,21.97
2018-06-24T19:28:14.779Z,22.08
2018-06-24T19:30:44.632Z,22.09
2018-06-24T19:33:14.275Z,22.09
2018-06-24T19:35:43.905Z,22.06
2018-06-24T19:38:13.524Z,22.11
2018-06-24T19:40:43.264Z,22.07
2018-06-24T19:43:13.179Z,21.96
2018-06-24T19:45:42.807Z,22.26
2018-06-24T19:48:15.914Z,22.21
2018-06-24T19:50:45.809Z,22.43
2018-06-24T19:53:15.452Z,22.32
2018-06-24T20:00:58.813Z,21.94
2018-06-24T20:03:28.477Z,21.91
2018-06-24T20:05:58.275Z,21.89
2018-06-24T20:08:28.014Z,21.77
2018-06-24T20:10:57.741Z,21.71
2018-06-24T20:13:28.036Z,21.73
2018-06-24T20:16:01.516Z,21.64
2018-06-24T20:18:31.612Z,21.59
2018-06-24T20:21:02.221Z,21.61
2018-06-24T20:23:34.958Z,21.59
2018-06-24T20:26:05.215Z,21.56
2018-06-24T20:28:34.908Z,21.57
2018-06-24T20:31:05.440Z,21.53
2018-06-24T20:33:35.988Z,21.43
2018-06-24T20:36:05.872Z,21.44
2018-06-24T20:38:35.598Z,21.46
2018-06-24T20:41:06.484Z,21.40
2018-06-24T20:43:37.977Z,21.25
2018-06-24T20:46:07.607Z,21.23
2018-06-24T20:48:37.207Z,21.21
2018-06-24T20:51:07.478Z,21.34
2018-06-24T20:53:37.173Z,21.34
2018-06-24T20:56:07.509Z,21.35
2018-06-24T20:58:37.596Z,21.51
2018-06-24T21:01:07.964Z,21.67
2018-06-24T21:03:37.743Z,21.56
2018-06-24T21:06:12.228Z,21.48
2018-06-24T21:08:42.007Z,21.37
2018-06-24T21:11:11.605Z,21.33
2018-06-24T21:13:41.914Z,21.25
2018-06-24T21:16:12.397Z,21.24
2018-06-24T21:18:43.968Z,21.27
2018-06-24T21:21:14.624Z,21.30
2018-06-24T21:28:55.604Z,21.14
2018-06-24T21:31:25.208Z,21.13
2018-06-24T21:33:54.887Z,21.09
2018-06-24T21:36:24.670Z,21.12
2018-06-24T21:38:54.329Z,21.10
2018-06-24T21:41:24.009Z,21.11
2018-06-24T21:43:53.629Z,21.13
2018-06-24T21:46:23.293Z,21.11
2018-06-24T21:48:52.986Z,21.20
2018-06-24T21:51:22.593Z,21.30
2018-06-24T21:53:52.293Z,21.24
2018-06-24T21:56:21.858Z,21.40
2018-06-24T21:58:51.804Z,21.47
2018-06-24T22:01:21.416Z,21.40
2018-06-24T22:03:51.072Z,21.24
2018-06-24T22:06:20.681Z,20.96
2018-06-24T22:08:50.295Z,20.53
2018-06-24T22:11:19.920Z,20.93
2018-06-24T22:13:49.590Z,20.75
2018-06-24T22:16:19.573Z,20.47
2018-06-24T22:18:49.160Z,20.33
2018-06-24T22:21:18.808Z,20.34
2018-06-24T22:23:49.284Z,20.26
2018-06-24T22:26:18.919Z,20.21
2018-06-24T22:28:51.198Z,20.57
2018-06-24T22:31:21.152Z,20.38
2018-06-24T22:33:52.229Z,20.25
2018-06-24T22:36:22.040Z,20.03
2018-06-24T22:38:51.764Z,19.85
2018-06-24T22:41:21.549Z,20.19
2018-06-24T22:43:51.241Z,20.22
2018-06-24T22:46:20.822Z,20.17
2018-06-24T22:48:50.494Z,19.97
2018-06-24T22:53:56.630Z,19.90
2018-06-24T22:56:26.261Z,19.98
2018-06-24T22:59:10.593Z,19.86
2018-06-24T23:01:40.184Z,19.96
2018-06-24T23:04:09.718Z,20.06
2018-06-24T23:06:39.328Z,19.95
2018-06-24T23:09:09.183Z,20.29
2018-06-24T23:11:38.745Z,20.19
2018-06-24T23:14:08.426Z,19.96
2018-06-24T23:16:38.372Z,19.99
2018-06-24T23:19:08.022Z,19.81
2018-06-24T23:21:37.767Z,19.73
2018-06-24T23:24:07.344Z,19.80
2018-06-24T23:29:11.953Z,19.69
2018-06-24T23:31:41.525Z,19.80
2018-06-24T23:34:11.175Z,19.78
2018-06-24T23:36:40.879Z,19.47
2018-06-24T23:39:10.740Z,19.45
2018-06-24T23:46:51.186Z,19.54
2018-06-24T23:49:20.840Z,19.58
2018-06-24T23:51:50.430Z,19.94
2018-06-24T23:54:20.124Z,19.93
2018-06-24T23:56:49.897Z,19.70
2018-06-24T23:59:19.497Z,19.58
